2022年9月24日 2:00 下午2022年9月24日 9:00 下午有效
时间
星期六
2:00 下午
星期六
3:00 下午
星期六
4:00 下午
星期六
5:00 下午
星期六
6:00 下午
星期六
7:00 下午
星期六
8:00 下午
代码
VFR
VFR
VFR
VFR
VFR
VFR
VFR
天气
天空晴朗
天空晴朗
天空晴朗
天空晴朗
天空晴朗
天空晴朗
天空晴朗
能见度
6 mi+
6 mi+
6 mi+
6 mi+
6 mi+
6 mi+
6 mi+
天花板
-
-
-
-
-
-
-
260°
260°
260°
260°
260°
260°
260°
260°
260°
260°
290°
290°
290°
290°
速度
12 kt
12 kt
12 kt
12 kt
12 kt
12 kt
12 kt
阵风
温度/星期日
6:56 下午

原版的

TAF CYND 241740Z 2418/2501 26012KT P6SM FEW040
BECMG 2423/2501 29005KT RMK NXT FCST BY 251300Z

TAF Navan Bearbrook Airport

Navan Bearbrook Airport是Ottawa,加拿大中的小机场。 该机场有一条跑道: 17/35. 该领域的国际民航组织标志是CA-0088.

这份报告是针对2022年9月24日 1:40 下午, 当地时间在Ottawa / Gatineau Airport进行的。 从2022年9月24日 2:00 下午到2022年9月24日 9:00 下午, 当地时间有效.

预报

  • 在星期六 2:00 下午和9:00 下午之间

    • 风: 风来自260°方向,速度为12 kt。
    • 能见度: 6 mi 或者更多
    • 乌云: 几云在4.000 ft的高度.

  • 介于星期六 7:00 下午和9:00 下午之间

    • 风: 风来自290°方向,速度为5 kt。

白天

今天,太阳从6:52 上午升起,在6:53 下午降落。 这适用于Navan Bearbrook Airport,世界夏令时可能有所不同。 当地时间与世界标准时间之间的时差为-4 小时。 夏令时目前正在进行中。

我们和第三方通过cookies跟踪您在我们网站上的上网行为。如果您继续,我们认为您同意我们的cookie政策。 了解更多